Bolton Landing, New York
Current Conditions -  °F | °C
As of 9:53 PM on Friday 21 Nov 2014 (Local Time) from KGFL Reporting Station
Overcast Overcast  
Wind Chill: -8°   Ceiling: 6000
Heat Index: -8°   Visibility: 10mi
Dew Point: -11°   Wind: 3mph
Humidity: 81%   Direction: 220°SW
Pressure: 30.4"   Gusts: NA
Location:  43.56°N, 73.66°W
Report Text: KGFL 220253Z AUTO 22003KT 10SM OVC060 M08/M11 A3040 RMK AO2 SLP308 T10831111 58000
Loading
Personal Weather Stations






























Interactive Weather Map New forecast layout! Learn more

10-Day Weather Forecast

Advertisements
Track Severe Weather on mobile